AXM408 WIBB-WIEE
Flight info
| Callsign | AXM408 |
|---|---|
| Flight time | 0h 36m |
| Altitude | 16000 |
| Route | UGIGI W22 OSNIS |
| Aircraft | A20N/M-SDE2E3FGHIRWXY/LB1 |
Departure
| Time | 2026-05-01 09:45 |
|---|---|
| Airport | Sultan Syarif Kasim II International Airport / Roesmin Nurjadin AFB (WIBB) |
Arrival
| Time | 2026-05-01 10:21 |
|---|---|
| Airport | Minangkabau International Airport (WIEE) |
| Time | Latitude | Longitude | Altitude | Speed | Heading |
|---|---|---|---|---|---|
| 2026-05-01 09:23 | 0.46480 | 101.44682 | 141 ft | 0 kts | 91° |
| 2026-05-01 09:34 | 0.46480 | 101.44677 | 141 ft | 2 kts | 91° |
| 2026-05-01 09:34 | 0.46480 | 101.44662 | 141 ft | 2 kts | 91° |
| 2026-05-01 09:34 | 0.46481 | 101.44632 | 141 ft | 2 kts | 91° |
| 2026-05-01 09:35 | 0.46481 | 101.44617 | 141 ft | 2 kts | 91° |
| 2026-05-01 09:35 | 0.46492 | 101.44594 | 141 ft | 1 kts | 158° |
| 2026-05-01 09:35 | 0.46503 | 101.44591 | 141 ft | 0 kts | 177° |
| 2026-05-01 09:36 | 0.46510 | 101.44592 | 141 ft | 0 kts | 182° |
| 2026-05-01 09:36 | 0.46511 | 101.44592 | 141 ft | 0 kts | 182° |
| 2026-05-01 09:39 | 0.46487 | 101.44591 | 141 ft | 6 kts | 181° |
| 2026-05-01 09:39 | 0.46427 | 101.44589 | 141 ft | 9 kts | 182° |
| 2026-05-01 09:39 | 0.46383 | 101.44550 | 141 ft | 10 kts | 269° |
| 2026-05-01 09:40 | 0.46380 | 101.44473 | 141 ft | 11 kts | 247° |
| 2026-05-01 09:40 | 0.46198 | 101.44453 | 138 ft | 17 kts | 182° |
| 2026-05-01 09:40 | 0.46064 | 101.44450 | 136 ft | 20 kts | 182° |
| 2026-05-01 09:41 | 0.45922 | 101.44446 | 134 ft | 20 kts | 181° |
| 2026-05-01 09:41 | 0.45623 | 101.44438 | 131 ft | 22 kts | 181° |
| 2026-05-01 09:41 | 0.45466 | 101.44435 | 129 ft | 22 kts | 180° |
| 2026-05-01 09:42 | 0.45309 | 101.44429 | 128 ft | 22 kts | 182° |
| 2026-05-01 09:42 | 0.45149 | 101.44424 | 125 ft | 23 kts | 181° |
| 2026-05-01 09:42 | 0.44866 | 101.44418 | 118 ft | 12 kts | 173° |
| 2026-05-01 09:43 | 0.44797 | 101.44415 | 117 ft | 5 kts | 350° |
| 2026-05-01 09:43 | 0.44806 | 101.44415 | 117 ft | 0 kts | 1° |
| 2026-05-01 09:44 | 0.44835 | 101.44415 | 118 ft | 24 kts | 2° |
| 2026-05-01 09:44 | 0.45265 | 101.44428 | 128 ft | 95 kts | 2° |
| 2026-05-01 09:44 | 0.46135 | 101.44453 | 138 ft | 152 kts | 2° |
| 2026-05-01 09:45 | 0.47254 | 101.44501 | 552 ft | 163 kts | 4° |
| 2026-05-01 09:45 | 0.49674 | 101.44588 | 1300 ft | 189 kts | 3° |
| 2026-05-01 09:45 | 0.51032 | 101.44781 | 1598 ft | 206 kts | 25° |
| 2026-05-01 09:46 | 0.52131 | 101.45789 | 1850 ft | 228 kts | 62° |
| 2026-05-01 09:46 | 0.52500 | 101.47368 | 2237 ft | 247 kts | 94° |
| 2026-05-01 09:46 | 0.51864 | 101.49003 | 2691 ft | 265 kts | 129° |
| 2026-05-01 09:46 | 0.50318 | 101.50004 | 3375 ft | 274 kts | 164° |
| 2026-05-01 09:47 | 0.48412 | 101.50051 | 4162 ft | 278 kts | 187° |
| 2026-05-01 09:47 | 0.46501 | 101.49696 | 4937 ft | 282 kts | 191° |
| 2026-05-01 09:47 | 0.44576 | 101.49281 | 5731 ft | 285 kts | 191° |
| 2026-05-01 09:47 | 0.42633 | 101.48880 | 6544 ft | 288 kts | 189° |
| 2026-05-01 09:48 | 0.40662 | 101.48498 | 7350 ft | 290 kts | 189° |
| 2026-05-01 09:48 | 0.38673 | 101.48129 | 8146 ft | 293 kts | 188° |
| 2026-05-01 09:48 | 0.36658 | 101.47766 | 8915 ft | 296 kts | 188° |
| 2026-05-01 09:48 | 0.34623 | 101.47405 | 9659 ft | 299 kts | 188° |
| 2026-05-01 09:49 | 0.32561 | 101.47044 | 10394 ft | 303 kts | 188° |
| 2026-05-01 09:49 | 0.30429 | 101.46673 | 10809 ft | 319 kts | 188° |
| 2026-05-01 09:49 | 0.28177 | 101.46283 | 11142 ft | 336 kts | 188° |
| 2026-05-01 09:49 | 0.25801 | 101.45869 | 11446 ft | 354 kts | 188° |
| 2026-05-01 09:50 | 0.23308 | 101.45435 | 11731 ft | 370 kts | 188° |
| 2026-05-01 09:50 | 0.20709 | 101.44981 | 11987 ft | 385 kts | 188° |
| 2026-05-01 09:50 | 0.18006 | 101.44510 | 12240 ft | 400 kts | 188° |
| 2026-05-01 09:50 | 0.15217 | 101.44048 | 12597 ft | 408 kts | 185° |
| 2026-05-01 09:51 | 0.12369 | 101.43931 | 13135 ft | 410 kts | 178° |
| 2026-05-01 09:51 | 0.09505 | 101.43672 | 13655 ft | 417 kts | 191° |
| 2026-05-01 09:51 | 0.06765 | 101.42659 | 14158 ft | 423 kts | 207° |
| 2026-05-01 09:51 | 0.04383 | 101.40927 | 14773 ft | 424 kts | 223° |
| 2026-05-01 09:52 | 0.02446 | 101.38820 | 15242 ft | 412 kts | 229° |
| 2026-05-01 09:52 | 0.00585 | 101.36589 | 15414 ft | 422 kts | 230° |
| 2026-05-01 09:52 | -0.01285 | 101.34309 | 15587 ft | 426 kts | 230° |
| 2026-05-01 09:52 | -0.03184 | 101.32028 | 15719 ft | 427 kts | 229° |
| 2026-05-01 09:53 | -0.05146 | 101.29793 | 15777 ft | 428 kts | 227° |
| 2026-05-01 09:53 | -0.07124 | 101.27566 | 15804 ft | 428 kts | 227° |
| 2026-05-01 09:53 | -0.09100 | 101.25341 | 15817 ft | 428 kts | 227° |
| 2026-05-01 09:53 | -0.11071 | 101.23112 | 15820 ft | 428 kts | 228° |
| 2026-05-01 09:54 | -0.13040 | 101.20880 | 15830 ft | 428 kts | 227° |
| 2026-05-01 09:54 | -0.15011 | 101.18642 | 15832 ft | 428 kts | 228° |
| 2026-05-01 09:54 | -0.16972 | 101.16414 | 15831 ft | 427 kts | 228° |
| 2026-05-01 09:54 | -0.18934 | 101.14182 | 15834 ft | 427 kts | 228° |
| 2026-05-01 09:55 | -0.20888 | 101.11959 | 15846 ft | 426 kts | 228° |
| 2026-05-01 09:55 | -0.22847 | 101.09730 | 15844 ft | 427 kts | 228° |
| 2026-05-01 09:55 | -0.24807 | 101.07499 | 15845 ft | 427 kts | 228° |
| 2026-05-01 09:55 | -0.26767 | 101.05268 | 15863 ft | 427 kts | 228° |
| 2026-05-01 09:56 | -0.28722 | 101.03043 | 15858 ft | 421 kts | 228° |
| 2026-05-01 09:56 | -0.30607 | 101.00896 | 15860 ft | 401 kts | 228° |
| 2026-05-01 09:56 | -0.32405 | 100.98846 | 15873 ft | 382 kts | 228° |
| 2026-05-01 09:56 | -0.34136 | 100.96875 | 15885 ft | 376 kts | 228° |
| 2026-05-01 09:57 | -0.35864 | 100.94909 | 15900 ft | 376 kts | 228° |
| 2026-05-01 09:57 | -0.37596 | 100.92938 | 15900 ft | 377 kts | 228° |
| 2026-05-01 09:57 | -0.39322 | 100.90974 | 15912 ft | 376 kts | 227° |
| 2026-05-01 09:57 | -0.41052 | 100.89005 | 15913 ft | 377 kts | 227° |
| 2026-05-01 09:58 | -0.42780 | 100.87039 | 15911 ft | 376 kts | 227° |
| 2026-05-01 09:58 | -0.44509 | 100.85070 | 15913 ft | 376 kts | 228° |
| 2026-05-01 09:58 | -0.46236 | 100.83105 | 15911 ft | 376 kts | 228° |
| 2026-05-01 09:58 | -0.47960 | 100.81142 | 15898 ft | 375 kts | 228° |
| 2026-05-01 09:59 | -0.49683 | 100.79180 | 15802 ft | 376 kts | 228° |
| 2026-05-01 09:59 | -0.51401 | 100.77223 | 15560 ft | 373 kts | 228° |
| 2026-05-01 09:59 | -0.53111 | 100.75276 | 15336 ft | 372 kts | 228° |
| 2026-05-01 09:59 | -0.54820 | 100.73329 | 15110 ft | 371 kts | 228° |
| 2026-05-01 10:00 | -0.56518 | 100.71396 | 14884 ft | 370 kts | 228° |
| 2026-05-01 10:00 | -0.58201 | 100.69455 | 14659 ft | 370 kts | 231° |
| 2026-05-01 10:00 | -0.59423 | 100.67146 | 14417 ft | 387 kts | 255° |
| 2026-05-01 10:00 | -0.59626 | 100.64468 | 14194 ft | 389 kts | 279° |
| 2026-05-01 10:01 | -0.59021 | 100.61846 | 13986 ft | 388 kts | 285° |
| 2026-05-01 10:01 | -0.58343 | 100.59252 | 13760 ft | 386 kts | 285° |
| 2026-05-01 10:01 | -0.57673 | 100.56626 | 13541 ft | 399 kts | 285° |
| 2026-05-01 10:01 | -0.56991 | 100.53914 | 13329 ft | 406 kts | 284° |
| 2026-05-01 10:02 | -0.56308 | 100.51180 | 13094 ft | 405 kts | 284° |
| 2026-05-01 10:02 | -0.55657 | 100.48450 | 12960 ft | 400 kts | 284° |
| 2026-05-01 10:02 | -0.55036 | 100.45830 | 12936 ft | 375 kts | 284° |
| 2026-05-01 10:02 | -0.54456 | 100.43392 | 12836 ft | 349 kts | 284° |
| 2026-05-01 10:03 | -0.53901 | 100.41074 | 12116 ft | 345 kts | 284° |
| 2026-05-01 10:03 | -0.53334 | 100.38727 | 11178 ft | 354 kts | 284° |
| 2026-05-01 10:03 | -0.52760 | 100.36359 | 10774 ft | 348 kts | 284° |
| 2026-05-01 10:03 | -0.52196 | 100.34029 | 10440 ft | 341 kts | 284° |
| 2026-05-01 10:04 | -0.51657 | 100.31794 | 10299 ft | 319 kts | 284° |
| 2026-05-01 10:04 | -0.51154 | 100.29712 | 10178 ft | 300 kts | 284° |
| 2026-05-01 10:04 | -0.50673 | 100.27718 | 10050 ft | 292 kts | 284° |
| 2026-05-01 10:04 | -0.50199 | 100.25753 | 9694 ft | 292 kts | 284° |
| 2026-05-01 10:05 | -0.49723 | 100.23786 | 9342 ft | 291 kts | 284° |
| 2026-05-01 10:05 | -0.49250 | 100.21825 | 8996 ft | 290 kts | 284° |
| 2026-05-01 10:05 | -0.48779 | 100.19873 | 8653 ft | 289 kts | 284° |
| 2026-05-01 10:05 | -0.48328 | 100.17925 | 8296 ft | 288 kts | 279° |
| 2026-05-01 10:06 | -0.48372 | 100.15942 | 7957 ft | 287 kts | 256° |
| 2026-05-01 10:06 | -0.49086 | 100.14114 | 7892 ft | 282 kts | 245° |
| 2026-05-01 10:06 | -0.49948 | 100.12351 | 7568 ft | 282 kts | 243° |
| 2026-05-01 10:06 | -0.50810 | 100.10599 | 7238 ft | 281 kts | 244° |
| 2026-05-01 10:07 | -0.51661 | 100.08846 | 6904 ft | 280 kts | 244° |
| 2026-05-01 10:07 | -0.52502 | 100.07099 | 6564 ft | 278 kts | 242° |
| 2026-05-01 10:07 | -0.53703 | 100.05618 | 6186 ft | 276 kts | 213° |
| 2026-05-01 10:07 | -0.55475 | 100.04954 | 5929 ft | 273 kts | 183° |
| 2026-05-01 10:08 | -0.59136 | 100.05974 | 5981 ft | 276 kts | 155° |
| 2026-05-01 10:08 | -0.60901 | 100.06758 | 6003 ft | 276 kts | 155° |
| 2026-05-01 10:08 | -0.62664 | 100.07530 | 6023 ft | 276 kts | 155° |
| 2026-05-01 10:09 | -0.64432 | 100.08307 | 6028 ft | 276 kts | 152° |
| 2026-05-01 10:09 | -0.65896 | 100.09513 | 6019 ft | 275 kts | 123° |
| 2026-05-01 10:09 | -0.66552 | 100.11285 | 6027 ft | 274 kts | 95° |
| 2026-05-01 10:09 | -0.66296 | 100.13156 | 6036 ft | 275 kts | 68° |
| 2026-05-01 10:10 | -0.65442 | 100.14863 | 6047 ft | 275 kts | 63° |
| 2026-05-01 10:10 | -0.64554 | 100.16560 | 6042 ft | 275 kts | 63° |
| 2026-05-01 10:10 | -0.64053 | 100.20190 | 6039 ft | 274 kts | 112° |
| 2026-05-01 10:11 | -0.65147 | 100.21733 | 6042 ft | 275 kts | 140° |
| 2026-05-01 10:11 | -0.66816 | 100.22676 | 6052 ft | 277 kts | 155° |
| 2026-05-01 10:11 | -0.68585 | 100.23457 | 6043 ft | 276 kts | 155° |
| 2026-05-01 10:11 | -0.70346 | 100.24247 | 6030 ft | 276 kts | 155° |
| 2026-05-01 10:12 | -0.72109 | 100.25046 | 5793 ft | 278 kts | 154° |
| 2026-05-01 10:12 | -0.73872 | 100.25853 | 5423 ft | 277 kts | 154° |
| 2026-05-01 10:12 | -0.77357 | 100.27459 | 4741 ft | 273 kts | 155° |
| 2026-05-01 10:13 | -0.79077 | 100.28252 | 4415 ft | 270 kts | 155° |
| 2026-05-01 10:13 | -0.80780 | 100.29038 | 4088 ft | 268 kts | 155° |
| 2026-05-01 10:13 | -0.82466 | 100.29816 | 3760 ft | 265 kts | 154° |
| 2026-05-01 10:14 | -0.85777 | 100.31346 | 3332 ft | 251 kts | 154° |
| 2026-05-01 10:14 | -0.87322 | 100.32060 | 3309 ft | 236 kts | 154° |
| 2026-05-01 10:14 | -0.88775 | 100.32733 | 3276 ft | 223 kts | 154° |
| 2026-05-01 10:14 | -0.90146 | 100.33367 | 3234 ft | 210 kts | 154° |
| 2026-05-01 10:15 | -0.91442 | 100.33967 | 3155 ft | 202 kts | 154° |
| 2026-05-01 10:15 | -0.92720 | 100.34558 | 3054 ft | 202 kts | 154° |
| 2026-05-01 10:15 | -0.93999 | 100.35152 | 2945 ft | 202 kts | 154° |
| 2026-05-01 10:15 | -0.95117 | 100.35955 | 2853 ft | 195 kts | 121° |
| 2026-05-01 10:16 | -0.95376 | 100.37175 | 2865 ft | 175 kts | 84° |
| 2026-05-01 10:16 | -0.94931 | 100.38314 | 2426 ft | 184 kts | 53° |
| 2026-05-01 10:16 | -0.92637 | 100.38899 | 2096 ft | 186 kts | 333° |
| 2026-05-01 10:17 | -0.91693 | 100.38034 | 2091 ft | 186 kts | 301° |
| 2026-05-01 10:17 | -0.90694 | 100.35636 | 2080 ft | 187 kts | 290° |
| 2026-05-01 10:17 | -0.90259 | 100.34439 | 2051 ft | 173 kts | 290° |
| 2026-05-01 10:18 | -0.88980 | 100.32798 | 1950 ft | 149 kts | 332° |
| 2026-05-01 10:18 | -0.88042 | 100.32360 | 1755 ft | 148 kts | 336° |
| 2026-05-01 10:18 | -0.87094 | 100.31957 | 1566 ft | 147 kts | 336° |
| 2026-05-01 10:19 | -0.86158 | 100.31540 | 1369 ft | 147 kts | 335° |
| 2026-05-01 10:19 | -0.85229 | 100.31111 | 1179 ft | 146 kts | 335° |
| 2026-05-01 10:19 | -0.84302 | 100.30679 | 989 ft | 147 kts | 335° |
| 2026-05-01 10:20 | -0.82433 | 100.29811 | 607 ft | 148 kts | 336° |
| 2026-05-01 10:20 | -0.81484 | 100.29384 | 416 ft | 149 kts | 336° |
| 2026-05-01 10:20 | -0.80537 | 100.28940 | 215 ft | 150 kts | 335° |
| 2026-05-01 10:20 | -0.79582 | 100.28499 | 47 ft | 149 kts | 335° |
| 2026-05-01 10:21 | -0.78835 | 100.28153 | 50 ft | 77 kts | 334° |
| 2026-05-01 10:21 | -0.78558 | 100.28118 | 54 ft | 12 kts | 64° |
| 2026-05-01 10:21 | -0.78522 | 100.28194 | 56 ft | 12 kts | 65° |
| 2026-05-01 10:22 | -0.78517 | 100.28361 | 53 ft | 15 kts | 153° |
| 2026-05-01 10:22 | -0.78663 | 100.28432 | 51 ft | 3 kts | 123° |
| 2026-05-01 10:23 | -0.78648 | 100.28453 | 51 ft | 5 kts | 56° |
| 2026-05-01 10:23 | -0.78624 | 100.28501 | 51 ft | 0 kts | 65° |